sensor_id;sensor_type;location;lat;lon;timestamp;pressure;altitude;pressure_sealevel;temperature;humidity
53908;BME280;40469;47.998;7.794;2023-04-30T00:01:42;99136.72;;;11.20;100.00
53908;BME280;40469;47.998;7.794;2023-04-30T00:04:07;99134.09;;;11.23;100.00
53908;BME280;40469;47.998;7.794;2023-04-30T00:06:32;99138.53;;;11.13;100.00
53908;BME280;40469;47.998;7.794;2023-04-30T00:08:58;99136.84;;;11.08;100.00
53908;BME280;40469;47.998;7.794;2023-04-30T00:11:23;99139.44;;;11.08;100.00
53908;BME280;40469;47.998;7.794;2023-04-30T00:13:49;99139.50;;;11.03;100.00
53908;BME280;40469;47.998;7.794;2023-04-30T00:16:15;99141.22;;;11.04;100.00
53908;BME280;40469;47.998;7.794;2023-04-30T00:18:41;99129.97;;;10.97;100.00
53908;BME280;40469;47.998;7.794;2023-04-30T00:21:06;99139.53;;;11.02;100.00
53908;BME280;40469;47.998;7.794;2023-04-30T00:23:31;99136.94;;;10.98;100.00
53908;BME280;40469;47.998;7.794;2023-04-30T00:25:56;99133.47;;;10.96;100.00
53908;BME280;40469;47.998;7.794;2023-04-30T00:28:22;99130.91;;;10.89;100.00
53908;BME280;40469;47.998;7.794;2023-04-30T00:30:47;99136.19;;;10.84;100.00
53908;BME280;40469;47.998;7.794;2023-04-30T00:33:12;99134.44;;;10.85;100.00
53908;BME280;40469;47.998;7.794;2023-04-30T00:35:37;99131.84;;;10.81;100.00
53908;BME280;40469;47.998;7.794;2023-04-30T00:38:03;99133.56;;;10.84;100.00
53908;BME280;40469;47.998;7.794;2023-04-30T00:40:28;99128.38;;;10.76;100.00
53908;BME280;40469;47.998;7.794;2023-04-30T00:42:53;99128.44;;;10.72;100.00
53908;BME280;40469;47.998;7.794;2023-04-30T00:45:20;99129.31;;;10.72;100.00
53908;BME280;40469;47.998;7.794;2023-04-30T00:47:46;99119.75;;;10.70;100.00
53908;BME280;40469;47.998;7.794;2023-04-30T00:50:11;99109.34;;;10.63;100.00
53908;BME280;40469;47.998;7.794;2023-04-30T00:52:39;99115.56;;;10.50;100.00
53908;BME280;40469;47.998;7.794;2023-04-30T00:55:05;99104.28;;;10.42;100.00
53908;BME280;40469;47.998;7.794;2023-04-30T00:57:30;99100.81;;;10.43;100.00
53908;BME280;40469;47.998;7.794;2023-04-30T00:59:57;99095.59;;;10.40;100.00
53908;BME280;40469;47.998;7.794;2023-04-30T01:02:23;99087.81;;;10.34;100.00
53908;BME280;40469;47.998;7.794;2023-04-30T01:04:48;99084.31;;;10.29;100.00
53908;BME280;40469;47.998;7.794;2023-04-30T01:07:14;99080.84;;;10.28;100.00
53908;BME280;40469;47.998;7.794;2023-04-30T01:09:40;99077.41;;;10.21;100.00
53908;BME280;40469;47.998;7.794;2023-04-30T01:12:09;99081.84;;;10.15;100.00
53908;BME280;40469;47.998;7.794;2023-04-30T01:17:33;99076.63;;;10.15;100.00
53908;BME280;40469;47.998;7.794;2023-04-30T01:20:00;99070.56;;;10.10;100.00
53908;BME280;40469;47.998;7.794;2023-04-30T01:29:44;99068.09;;;9.86;100.00
53908;BME280;40469;47.998;7.794;2023-04-30T01:32:09;99073.31;;;9.83;100.00
53908;BME280;40469;47.998;7.794;2023-04-30T01:34:35;99068.09;;;9.79;100.00
53908;BME280;40469;47.998;7.794;2023-04-30T01:42:11;99077.72;;;9.69;100.00
53908;BME280;40469;47.998;7.794;2023-04-30T01:55:26;99079.44;;;9.78;100.00
53908;BME280;40469;47.998;7.794;2023-04-30T01:57:51;99070.72;;;9.76;100.00
53908;BME280;40469;47.998;7.794;2023-04-30T02:00:19;99075.06;;;9.83;100.00
53908;BME280;40469;47.998;7.794;2023-04-30T02:02:44;99073.25;;;9.88;100.00
53908;BME280;40469;47.998;7.794;2023-04-30T02:05:10;99069.78;;;9.92;100.00
53908;BME280;40469;47.998;7.794;2023-04-30T02:07:39;99065.41;;;9.94;100.00
53908;BME280;40469;47.998;7.794;2023-04-30T02:10:05;99062.81;;;9.90;100.00
53908;BME280;40469;47.998;7.794;2023-04-30T02:12:30;99063.72;;;9.90;100.00
53908;BME280;40469;47.998;7.794;2023-04-30T02:14:55;99071.53;;;9.90;100.00
53908;BME280;40469;47.998;7.794;2023-04-30T02:17:20;99068.94;;;9.89;100.00
53908;BME280;40469;47.998;7.794;2023-04-30T02:19:46;99066.28;;;9.93;100.00
53908;BME280;40469;47.998;7.794;2023-04-30T02:22:11;99067.13;;;10.00;100.00
53908;BME280;40469;47.998;7.794;2023-04-30T02:24:36;99070.59;;;10.02;100.00
53908;BME280;40469;47.998;7.794;2023-04-30T02:27:01;99064.50;;;10.01;100.00
53908;BME280;40469;47.998;7.794;2023-04-30T02:29:27;99069.72;;;10.01;100.00
53908;BME280;40469;47.998;7.794;2023-04-30T02:31:52;99070.56;;;10.03;100.00
53908;BME280;40469;47.998;7.794;2023-04-30T02:34:17;99071.44;;;10.05;100.00
53908;BME280;40469;47.998;7.794;2023-04-30T02:36:42;99071.50;;;9.96;100.00
53908;BME280;40469;47.998;7.794;2023-04-30T02:39:08;99070.59;;;10.00;100.00
53908;BME280;40469;47.998;7.794;2023-04-30T02:41:33;99067.13;;;9.97;100.00
53908;BME280;40469;47.998;7.794;2023-04-30T02:43:58;99072.34;;;10.01;100.00
53908;BME280;40469;47.998;7.794;2023-04-30T02:46:23;99072.28;;;10.11;100.00
53908;BME280;40469;47.998;7.794;2023-04-30T02:48:48;99069.66;;;10.09;100.00
53908;BME280;40469;47.998;7.794;2023-04-30T02:51:14;99068.81;;;10.05;100.00
53908;BME280;40469;47.998;7.794;2023-04-30T02:53:39;99068.81;;;10.07;100.00
53908;BME280;40469;47.998;7.794;2023-04-30T02:56:05;99065.34;;;10.08;100.00
53908;BME280;40469;47.998;7.794;2023-04-30T02:58:30;99068.81;;;10.09;100.00
53908;BME280;40469;47.998;7.794;2023-04-30T03:00:56;99066.19;;;10.10;100.00
53908;BME280;40469;47.998;7.794;2023-04-30T03:03:21;99061.84;;;10.09;100.00
53908;BME280;40469;47.998;7.794;2023-04-30T03:05:46;99060.06;;;10.13;100.00
53908;BME280;40469;47.998;7.794;2023-04-30T03:08:11;99061.81;;;10.14;100.00
53908;BME280;40469;47.998;7.794;2023-04-30T03:10:37;99060.97;;;10.13;100.00
53908;BME280;40469;47.998;7.794;2023-04-30T03:13:02;99060.91;;;10.16;100.00
53908;BME280;40469;47.998;7.794;2023-04-30T03:15:27;99059.19;;;10.17;100.00
53908;BME280;40469;47.998;7.794;2023-04-30T03:17:52;99050.53;;;10.13;100.00
53908;BME280;40469;47.998;7.794;2023-04-30T03:20:18;99052.25;;;10.14;100.00
53908;BME280;40469;47.998;7.794;2023-04-30T03:22:43;99052.22;;;10.17;100.00
53908;BME280;40469;47.998;7.794;2023-04-30T03:25:08;99050.53;;;10.10;100.00
53908;BME280;40469;47.998;7.794;2023-04-30T03:27:34;99054.91;;;10.10;100.00
53908;BME280;40469;47.998;7.794;2023-04-30T03:29:59;99043.56;;;10.14;100.00
53908;BME280;40469;47.998;7.794;2023-04-30T03:32:25;99043.50;;;10.20;100.00
53908;BME280;40469;47.998;7.794;2023-04-30T03:34:50;99040.94;;;10.18;100.00
53908;BME280;40469;47.998;7.794;2023-04-30T03:37:15;99043.50;;;10.23;100.00
53908;BME280;40469;47.998;7.794;2023-04-30T03:39:40;99043.56;;;10.17;100.00
53908;BME280;40469;47.998;7.794;2023-04-30T03:42:06;99031.34;;;10.22;100.00
53908;BME280;40469;47.998;7.794;2023-04-30T03:44:31;99037.47;;;10.15;100.00
53908;BME280;40469;47.998;7.794;2023-04-30T03:46:56;99039.28;;;10.05;100.00
53908;BME280;40469;47.998;7.794;2023-04-30T03:49:21;99034.91;;;10.09;100.00
53908;BME280;40469;47.998;7.794;2023-04-30T03:51:47;99038.34;;;10.12;100.00
53908;BME280;40469;47.998;7.794;2023-04-30T03:54:12;99035.72;;;10.14;100.00
53908;BME280;40469;47.998;7.794;2023-04-30T03:56:37;99033.97;;;10.19;100.00
53908;BME280;40469;47.998;7.794;2023-04-30T03:59:03;99033.06;;;10.20;100.00
53908;BME280;40469;47.998;7.794;2023-04-30T04:01:29;99034.84;;;10.16;100.00
53908;BME280;40469;47.998;7.794;2023-04-30T04:03:54;99040.94;;;10.15;100.00
53908;BME280;40469;47.998;7.794;2023-04-30T04:06:20;99033.97;;;10.17;100.00
53908;BME280;40469;47.998;7.794;2023-04-30T04:08:45;99035.75;;;10.12;100.00
53908;BME280;40469;47.998;7.794;2023-04-30T04:11:10;99032.28;;;10.07;100.00
53908;BME280;40469;47.998;7.794;2023-04-30T04:13:36;99039.25;;;10.10;100.00
53908;BME280;40469;47.998;7.794;2023-04-30T04:16:01;99040.13;;;10.09;100.00
53908;BME280;40469;47.998;7.794;2023-04-30T04:18:26;99036.66;;;10.06;100.00
53908;BME280;40469;47.998;7.794;2023-04-30T04:20:52;99047.94;;;10.09;100.00
53908;BME280;40469;47.998;7.794;2023-04-30T04:23:17;99050.56;;;10.04;100.00
53908;BME280;40469;47.998;7.794;2023-04-30T04:25:42;99050.56;;;10.05;100.00
53908;BME280;40469;47.998;7.794;2023-04-30T04:28:08;99054.00;;;10.11;100.00
53908;BME280;40469;47.998;7.794;2023-04-30T04:30:33;99050.56;;;10.05;100.00
53908;BME280;40469;47.998;7.794;2023-04-30T04:32:58;99054.91;;;10.06;100.00
53908;BME280;40469;47.998;7.794;2023-04-30T04:35:24;99056.63;;;10.07;100.00
53908;BME280;40469;47.998;7.794;2023-04-30T04:37:49;99056.63;;;10.09;100.00
53908;BME280;40469;47.998;7.794;2023-04-30T04:40:15;99047.09;;;10.06;100.00
53908;BME280;40469;47.998;7.794;2023-04-30T04:42:40;99051.41;;;10.07;100.00
53908;BME280;40469;47.998;7.794;2023-04-30T04:45:06;99054.00;;;10.11;100.00
53908;BME280;40469;47.998;7.794;2023-04-30T04:47:31;99056.59;;;10.14;100.00
53908;BME280;40469;47.998;7.794;2023-04-30T04:49:57;99051.34;;;10.20;100.00
53908;BME280;40469;47.998;7.794;2023-04-30T04:52:22;99055.66;;;10.25;100.00
53908;BME280;40469;47.998;7.794;2023-04-30T04:54:48;99053.00;;;10.29;100.00
53908;BME280;40469;47.998;7.794;2023-04-30T04:57:13;99054.78;;;10.31;100.00
53908;BME280;40469;47.998;7.794;2023-04-30T04:59:38;99055.59;;;10.38;100.00
53908;BME280;40469;47.998;7.794;2023-04-30T05:02:03;99059.91;;;10.43;100.00
53908;BME280;40469;47.998;7.794;2023-04-30T05:04:28;99062.44;;;10.51;100.00
53908;BME280;40469;47.998;7.794;2023-04-30T05:06:54;99061.56;;;10.55;100.00
53908;BME280;40469;47.998;7.794;2023-04-30T05:09:19;99062.38;;;10.60;100.00
53908;BME280;40469;47.998;7.794;2023-04-30T05:11:45;99063.19;;;10.67;100.00
53908;BME280;40469;47.998;7.794;2023-04-30T05:14:12;99070.06;;;10.76;100.00
53908;BME280;40469;47.998;7.794;2023-04-30T05:16:37;99072.56;;;10.88;100.00
53908;BME280;40469;47.998;7.794;2023-04-30T05:19:02;99062.91;;;10.98;100.00
53908;BME280;40469;47.998;7.794;2023-04-30T05:21:27;99068.06;;;11.04;100.00
53908;BME280;40469;47.998;7.794;2023-04-30T05:23:54;99068.06;;;11.03;100.00
53908;BME280;40469;47.998;7.794;2023-04-30T05:26:19;99065.44;;;11.06;100.00
53908;BME280;40469;47.998;7.794;2023-04-30T05:28:44;99064.50;;;11.13;100.00
53908;BME280;40469;47.998;7.794;2023-04-30T05:31:10;99063.56;;;11.17;100.00
53908;BME280;40469;47.998;7.794;2023-04-30T05:33:35;99064.34;;;11.27;100.00
53908;BME280;40469;47.998;7.794;2023-04-30T05:36:01;99067.69;;;11.38;100.00
53908;BME280;40469;47.998;7.794;2023-04-30T05:38:26;99056.25;;;11.50;100.00
53908;BME280;40469;47.998;7.794;2023-04-30T05:40:51;99053.50;;;11.59;100.00
53908;BME280;40469;47.998;7.794;2023-04-30T05:43:17;99057.94;;;11.54;100.00
53908;BME280;40469;47.998;7.794;2023-04-30T05:45:42;99058.00;;;11.51;100.00
53908;BME280;40469;47.998;7.794;2023-04-30T05:48:07;99045.78;;;11.50;100.00
53908;BME280;40469;47.998;7.794;2023-04-30T05:50:32;99048.38;;;11.51;100.00
53908;BME280;40469;47.998;7.794;2023-04-30T05:52:58;99052.66;;;11.58;100.00
53908;BME280;40469;47.998;7.794;2023-04-30T05:55:23;99055.25;;;11.62;100.00
53908;BME280;40469;47.998;7.794;2023-04-30T05:57:48;99052.63;;;11.62;100.00
53908;BME280;40469;47.998;7.794;2023-04-30T06:00:14;99042.09;;;11.66;100.00
53908;BME280;40469;47.998;7.794;2023-04-30T06:02:40;99048.13;;;11.70;100.00
53908;BME280;40469;47.998;7.794;2023-04-30T06:05:06;99052.38;;;11.79;100.00
53908;BME280;40469;47.998;7.794;2023-04-30T06:07:31;99046.16;;;11.90;100.00
53908;BME280;40469;47.998;7.794;2023-04-30T06:09:56;99047.75;;;12.01;100.00
53908;BME280;40469;47.998;7.794;2023-04-30T06:12:22;99044.94;;;12.14;100.00
53908;BME280;40469;47.998;7.794;2023-04-30T06:14:48;99048.22;;;12.29;100.00
53908;BME280;40469;47.998;7.794;2023-04-30T06:17:13;99048.09;;;12.37;100.00
53908;BME280;40469;47.998;7.794;2023-04-30T06:19:39;99058.38;;;12.47;100.00
53908;BME280;40469;47.998;7.794;2023-04-30T06:22:05;99060.06;;;12.53;100.00
53908;BME280;40469;47.998;7.794;2023-04-30T06:24:30;99057.34;;;12.58;100.00
53908;BME280;40469;47.998;7.794;2023-04-30T06:26:55;99060.94;;;12.52;100.00
53908;BME280;40469;47.998;7.794;2023-04-30T06:29:20;99053.94;;;12.52;100.00
53908;BME280;40469;47.998;7.794;2023-04-30T06:31:48;99059.13;;;12.57;100.00
53908;BME280;40469;47.998;7.794;2023-04-30T06:34:13;99056.22;;;12.74;100.00
53908;BME280;40469;47.998;7.794;2023-04-30T06:36:38;99047.19;;;12.92;100.00
53908;BME280;40469;47.998;7.794;2023-04-30T06:39:04;99060.09;;;13.01;100.00
53908;BME280;40469;47.998;7.794;2023-04-30T06:41:29;99054.47;;;13.23;100.00
53908;BME280;40469;47.998;7.794;2023-04-30T06:43:54;99047.09;;;13.43;100.00
53908;BME280;40469;47.998;7.794;2023-04-30T06:46:20;99061.00;;;13.49;100.00
53908;BME280;40469;47.998;7.794;2023-04-30T06:48:45;99059.03;;;13.58;100.00
53908;BME280;40469;47.998;7.794;2023-04-30T06:51:10;99053.75;;;13.60;100.00
53908;BME280;40469;47.998;7.794;2023-04-30T06:53:35;99058.09;;;13.62;100.00
53908;BME280;40469;47.998;7.794;2023-04-30T06:56:01;99053.53;;;13.71;100.00
53908;BME280;40469;47.998;7.794;2023-04-30T06:58:26;99046.03;;;13.54;100.00
53908;BME280;40469;47.998;7.794;2023-04-30T07:00:51;99044.06;;;13.63;100.00
53908;BME280;40469;47.998;7.794;2023-04-30T07:03:17;99051.84;;;13.68;100.00
53908;BME280;40469;47.998;7.794;2023-04-30T07:05:43;99046.41;;;13.77;100.00
53908;BME280;40469;47.998;7.794;2023-04-30T07:08:08;99053.44;;;13.75;100.00
53908;BME280;40469;47.998;7.794;2023-04-30T07:10:33;99041.09;;;13.80;100.00
53908;BME280;40469;47.998;7.794;2023-04-30T07:12:58;99045.91;;;14.00;100.00
53908;BME280;40469;47.998;7.794;2023-04-30T07:15:24;99044.50;;;14.23;100.00
53908;BME280;40469;47.998;7.794;2023-04-30T07:17:49;99046.16;;;14.27;100.00
53908;BME280;40469;47.998;7.794;2023-04-30T07:20:15;99044.50;;;14.23;100.00
53908;BME280;40469;47.998;7.794;2023-04-30T07:22:43;99046.13;;;14.29;100.00
53908;BME280;40469;47.998;7.794;2023-04-30T07:25:10;99044.84;;;14.45;100.00
53908;BME280;40469;47.998;7.794;2023-04-30T07:27:35;99040.22;;;14.58;100.00
53908;BME280;40469;47.998;7.794;2023-04-30T07:30:01;99040.81;;;14.68;100.00
53908;BME280;40469;47.998;7.794;2023-04-30T07:32:26;99048.53;;;14.75;100.00
53908;BME280;40469;47.998;7.794;2023-04-30T07:34:52;99038.81;;;14.79;100.00
53908;BME280;40469;47.998;7.794;2023-04-30T07:37:17;99045.22;;;14.67;100.00
53908;BME280;40469;47.998;7.794;2023-04-30T07:39:42;99044.97;;;14.76;100.00
53908;BME280;40469;47.998;7.794;2023-04-30T07:42:08;99038.47;;;14.91;100.00
53908;BME280;40469;47.998;7.794;2023-04-30T07:44:33;99049.53;;;15.04;100.00
53908;BME280;40469;47.998;7.794;2023-04-30T07:46:58;99045.66;;;15.17;100.00
53908;BME280;40469;47.998;7.794;2023-04-30T07:49:24;99052.22;;;15.34;100.00
53908;BME280;40469;47.998;7.794;2023-04-30T07:51:49;99050.69;;;15.27;100.00
53908;BME280;40469;47.998;7.794;2023-04-30T07:54:15;99054.91;;;15.32;100.00
53908;BME280;40469;47.998;7.794;2023-04-30T07:56:40;99049.72;;;15.29;100.00
53908;BME280;40469;47.998;7.794;2023-04-30T07:59:06;99049.56;;;15.35;100.00
53908;BME280;40469;47.998;7.794;2023-04-30T08:01:31;99049.00;;;15.55;100.00
53908;BME280;40469;47.998;7.794;2023-04-30T08:03:57;99041.88;;;15.59;100.00
53908;BME280;40469;47.998;7.794;2023-04-30T08:06:22;99045.16;;;15.67;100.00
53908;BME280;40469;47.998;7.794;2023-04-30T08:08:47;99049.31;;;15.76;100.00
53908;BME280;40469;47.998;7.794;2023-04-30T08:11:13;99051.72;;;15.84;100.00
53908;BME280;40469;47.998;7.794;2023-04-30T08:13:39;99053.34;;;15.88;100.00
53908;BME280;40469;47.998;7.794;2023-04-30T08:16:05;99053.25;;;15.91;100.00
53908;BME280;40469;47.998;7.794;2023-04-30T08:18:31;99055.41;;;16.06;100.00
53908;BME280;40469;47.998;7.794;2023-04-30T08:20:56;99051.06;;;16.05;100.00
53908;BME280;40469;47.998;7.794;2023-04-30T08:23:21;99057.03;;;16.10;100.00
53908;BME280;40469;47.998;7.794;2023-04-30T08:25:46;99056.16;;;16.11;100.00
53908;BME280;40469;47.998;7.794;2023-04-30T08:28:12;99052.38;;;16.20;100.00
53908;BME280;40469;47.998;7.794;2023-04-30T08:30:37;99059.50;;;16.17;100.00
53908;BME280;40469;47.998;7.794;2023-04-30T08:33:03;99055.75;;;16.24;100.00
53908;BME280;40469;47.998;7.794;2023-04-30T08:35:28;99056.28;;;16.35;100.00
53908;BME280;40469;47.998;7.794;2023-04-30T08:37:54;99051.31;;;16.53;100.00
53908;BME280;40469;47.998;7.794;2023-04-30T08:40:19;99057.97;;;16.64;100.00
53908;BME280;40469;47.998;7.794;2023-04-30T08:42:45;99050.50;;;16.77;100.00
53908;BME280;40469;47.998;7.794;2023-04-30T08:45:14;99049.69;;;16.75;100.00
53908;BME280;40469;47.998;7.794;2023-04-30T08:47:40;99049.09;;;16.67;100.00
53908;BME280;40469;47.998;7.794;2023-04-30T08:50:06;99048.38;;;16.89;100.00
53908;BME280;40469;47.998;7.794;2023-04-30T08:52:33;99046.22;;;17.01;100.00
53908;BME280;40469;47.998;7.794;2023-04-30T08:55:00;99043.72;;;17.22;100.00
53908;BME280;40469;47.998;7.794;2023-04-30T08:57:25;99043.72;;;17.47;100.00
53908;BME280;40469;47.998;7.794;2023-04-30T08:59:51;99036.25;;;17.58;100.00
53908;BME280;40469;47.998;7.794;2023-04-30T09:02:16;99036.06;;;17.39;100.00
53908;BME280;40469;47.998;7.794;2023-04-30T09:04:41;99031.13;;;17.54;100.00
53908;BME280;40469;47.998;7.794;2023-04-30T09:07:06;99031.81;;;17.83;100.00
53908;BME280;40469;47.998;7.794;2023-04-30T09:09:39;99029.25;;;18.27;100.00
53908;BME280;40469;47.998;7.794;2023-04-30T09:12:23;99023.19;;;18.67;100.00
53908;BME280;40469;47.998;7.794;2023-04-30T09:17:22;99008.41;;;18.84;100.00
53908;BME280;40469;47.998;7.794;2023-04-30T09:19:49;99018.63;;;18.91;100.00
53908;BME280;40469;47.998;7.794;2023-04-30T09:22:21;99017.72;;;18.70;100.00
53908;BME280;40469;47.998;7.794;2023-04-30T09:24:48;99008.41;;;19.04;100.00
53908;BME280;40469;47.998;7.794;2023-04-30T09:27:22;99009.75;;;19.33;100.00
53908;BME280;40469;47.998;7.794;2023-04-30T09:29:48;99008.13;;;19.69;100.00
53908;BME280;40469;47.998;7.794;2023-04-30T09:32:13;99005.41;;;19.51;100.00
53908;BME280;40469;47.998;7.794;2023-04-30T09:34:39;99007.91;;;19.55;100.00
53908;BME280;40469;47.998;7.794;2023-04-30T09:37:04;99008.53;;;19.80;100.00
53908;BME280;40469;47.998;7.794;2023-04-30T09:39:31;99008.13;;;19.69;100.00
53908;BME280;40469;47.998;7.794;2023-04-30T09:42:09;99010.19;;;19.43;100.00
53908;BME280;40469;47.998;7.794;2023-04-30T09:44:35;98998.50;;;19.28;100.00
53908;BME280;40469;47.998;7.794;2023-04-30T09:47:01;98993.47;;;18.81;100.00
53908;BME280;40469;47.998;7.794;2023-04-30T09:49:27;98999.88;;;18.75;100.00
53908;BME280;40469;47.998;7.794;2023-04-30T09:51:55;98995.47;;;18.33;100.00
53908;BME280;40469;47.998;7.794;2023-04-30T09:54:24;98990.03;;;18.59;100.00
53908;BME280;40469;47.998;7.794;2023-04-30T09:56:52;98993.06;;;19.31;100.00
53908;BME280;40469;47.998;7.794;2023-04-30T09:59:19;98992.94;;;19.73;100.00
53908;BME280;40469;47.998;7.794;2023-04-30T10:01:45;98982.91;;;19.60;100.00
53908;BME280;40469;47.998;7.794;2023-04-30T10:04:11;98981.59;;;19.12;100.00
53908;BME280;40469;47.998;7.794;2023-04-30T10:06:37;98984.41;;;19.28;100.00
53908;BME280;40469;47.998;7.794;2023-04-30T10:09:03;98978.72;;;18.75;100.00
53908;BME280;40469;47.998;7.794;2023-04-30T10:11:30;98972.09;;;19.27;100.00
53908;BME280;40469;47.998;7.794;2023-04-30T10:14:02;98973.94;;;19.64;100.00
53908;BME280;40469;47.998;7.794;2023-04-30T10:19:19;98970.91;;;19.53;100.00
53908;BME280;40469;47.998;7.794;2023-04-30T10:21:46;98958.19;;;19.03;100.00
53908;BME280;40469;47.998;7.794;2023-04-30T10:24:12;98966.03;;;18.43;100.00
53908;BME280;40469;47.998;7.794;2023-04-30T10:26:38;98970.25;;;18.04;100.00
53908;BME280;40469;47.998;7.794;2023-04-30T10:29:04;98967.84;;;17.98;100.00
53908;BME280;40469;47.998;7.794;2023-04-30T10:31:29;98963.28;;;18.24;100.00
53908;BME280;40469;47.998;7.794;2023-04-30T10:36:39;98965.59;;;18.11;100.00
53908;BME280;40469;47.998;7.794;2023-04-30T10:39:09;98964.69;;;18.32;100.00
53908;BME280;40469;47.998;7.794;2023-04-30T10:41:36;98974.25;;;18.14;100.00
53908;BME280;40469;47.998;7.794;2023-04-30T10:44:01;98962.97;;;18.31;100.00
53908;BME280;40469;47.998;7.794;2023-04-30T10:46:29;98959.94;;;18.61;100.00
53908;BME280;40469;47.998;7.794;2023-04-30T10:48:54;98959.31;;;18.76;100.00
53908;BME280;40469;47.998;7.794;2023-04-30T10:51:20;98967.13;;;18.80;100.00
53908;BME280;40469;47.998;7.794;2023-04-30T10:53:46;98959.31;;;18.76;100.00
53908;BME280;40469;47.998;7.794;2023-04-30T10:56:12;98962.63;;;18.82;100.00
53908;BME280;40469;47.998;7.794;2023-04-30T10:58:38;98958.97;;;18.64;100.00
53908;BME280;40469;47.998;7.794;2023-04-30T11:01:10;98958.91;;;19.06;100.00
53908;BME280;40469;47.998;7.794;2023-04-30T11:03:36;98963.88;;;19.71;100.00
53908;BME280;40469;47.998;7.794;2023-04-30T11:06:11;98960.59;;;20.04;100.00
53908;BME280;40469;47.998;7.794;2023-04-30T11:08:38;98954.41;;;20.22;100.00
53908;BME280;40469;47.998;7.794;2023-04-30T11:11:03;98946.78;;;19.78;100.00
53908;BME280;40469;47.998;7.794;2023-04-30T11:16:29;98934.25;;;18.85;100.00
53908;BME280;40469;47.998;7.794;2023-04-30T11:18:56;98931.28;;;18.93;100.00
53908;BME280;40469;47.998;7.794;2023-04-30T11:21:31;98935.09;;;19.06;100.00
53908;BME280;40469;47.998;7.794;2023-04-30T11:24:01;98931.66;;;19.23;100.00
53908;BME280;40469;47.998;7.794;2023-04-30T11:26:27;98932.88;;;18.97;100.00
53908;BME280;40469;47.998;7.794;2023-04-30T11:28:52;98932.13;;;18.93;100.00
53908;BME280;40469;47.998;7.794;2023-04-30T11:31:19;98931.97;;;19.17;100.00
53908;BME280;40469;47.998;7.794;2023-04-30T11:33:44;98937.41;;;19.33;100.00
53908;BME280;40469;47.998;7.794;2023-04-30T11:36:10;98935.63;;;19.52;100.00
53908;BME280;40469;47.998;7.794;2023-04-30T11:38:38;98923.28;;;19.70;100.00
53908;BME280;40469;47.998;7.794;2023-04-30T11:41:03;98925.25;;;19.86;100.00
53908;BME280;40469;47.998;7.794;2023-04-30T11:43:29;98927.22;;;20.00;100.00
53908;BME280;40469;47.998;7.794;2023-04-30T11:46:05;98927.38;;;19.97;100.00
53908;BME280;40469;47.998;7.794;2023-04-30T11:48:35;98929.16;;;19.96;100.00
53908;BME280;40469;47.998;7.794;2023-04-30T11:53:31;98922.13;;;19.95;100.00
53908;BME280;40469;47.998;7.794;2023-04-30T11:56:00;98926.97;;;20.04;100.00
53908;BME280;40469;47.998;7.794;2023-04-30T11:58:26;98910.53;;;20.15;100.00
53908;BME280;40469;47.998;7.794;2023-04-30T12:00:52;98919.28;;;20.00;100.00
53908;BME280;40469;47.998;7.794;2023-04-30T12:03:18;98913.19;;;20.15;100.00
53908;BME280;40469;47.998;7.794;2023-04-30T12:05:44;98915.94;;;20.14;100.00
53908;BME280;40469;47.998;7.794;2023-04-30T12:08:10;98914.03;;;19.98;100.00
53908;BME280;40469;47.998;7.794;2023-04-30T12:10:36;98911.22;;;19.84;100.00
53908;BME280;40469;47.998;7.794;2023-04-30T12:13:01;98915.00;;;19.78;100.00
53908;BME280;40469;47.998;7.794;2023-04-30T12:15:27;98913.00;;;19.83;100.00
53908;BME280;40469;47.998;7.794;2023-04-30T12:17:54;98921.44;;;19.92;100.00
53908;BME280;40469;47.998;7.794;2023-04-30T12:20:20;98910.69;;;19.95;100.00
53908;BME280;40469;47.998;7.794;2023-04-30T12:22:46;98913.97;;;20.00;100.00
53908;BME280;40469;47.998;7.794;2023-04-30T12:25:17;98907.09;;;19.96;100.00
53908;BME280;40469;47.998;7.794;2023-04-30T12:27:46;98901.47;;;19.84;100.00
53908;BME280;40469;47.998;7.794;2023-04-30T12:30:12;98906.16;;;19.97;100.00
53908;BME280;40469;47.998;7.794;2023-04-30T12:35:04;98908.44;;;20.04;100.00
53908;BME280;40469;47.998;7.794;2023-04-30T12:37:29;98903.75;;;20.10;100.00
53908;BME280;40469;47.998;7.794;2023-04-30T12:39:55;98906.28;;;19.76;100.00
53908;BME280;40469;47.998;7.794;2023-04-30T12:42:20;98904.94;;;20.04;100.00
53908;BME280;40469;47.998;7.794;2023-04-30T12:44:46;98901.31;;;19.87;100.00
53908;BME280;40469;47.998;7.794;2023-04-30T12:47:11;98896.59;;;19.94;100.00
53908;BME280;40469;47.998;7.794;2023-04-30T12:49:38;98899.84;;;19.82;100.00
53908;BME280;40469;47.998;7.794;2023-04-30T12:52:11;98898.59;;;19.70;100.00
53908;BME280;40469;47.998;7.794;2023-04-30T12:54:37;98898.09;;;19.43;100.00
53908;BME280;40469;47.998;7.794;2023-04-30T12:57:03;98890.41;;;19.57;100.00
53908;BME280;40469;47.998;7.794;2023-04-30T12:59:29;98889.25;;;19.63;100.00
53908;BME280;40469;47.998;7.794;2023-04-30T13:01:54;98894.66;;;19.60;100.00
53908;BME280;40469;47.998;7.794;2023-04-30T13:04:28;98891.81;;;19.64;100.00
53908;BME280;40469;47.998;7.794;2023-04-30T13:06:54;98901.59;;;19.62;100.00
53908;BME280;40469;47.998;7.794;2023-04-30T13:09:19;98894.47;;;19.26;100.00
53908;BME280;40469;47.998;7.794;2023-04-30T13:11:44;98899.69;;;19.28;100.00
53908;BME280;40469;47.998;7.794;2023-04-30T13:14:10;98896.28;;;19.26;100.00
53908;BME280;40469;47.998;7.794;2023-04-30T13:16:37;98897.47;;;19.00;100.00
53908;BME280;40469;47.998;7.794;2023-04-30T13:19:02;98895.81;;;19.16;100.00
53908;BME280;40469;47.998;7.794;2023-04-30T13:21:29;98901.25;;;18.94;100.00
53908;BME280;40469;47.998;7.794;2023-04-30T13:23:54;98896.00;;;18.72;100.00
53908;BME280;40469;47.998;7.794;2023-04-30T13:26:20;98899.53;;;18.72;100.00